Date,TemperatureHighF,TemperatureAvgF,TemperatureLowF,DewpointHighF,DewpointAvgF,DewpointLowF,HumidityHigh,HumidityAvg,HumidityLow,PressureMaxIn,PressureMinIn,WindSpeedMaxMPH,WindSpeedAvgMPH,GustSpeedMaxMPH,PrecipitationSumIn
2013-1-1,38.3,31.4,20.7,37.3,28.4,17.7,96,88,83,30.15,29.91,8,1,8,0.01
2013-1-2,44.4,27.3,15.1,27.6,21.2,12.7,92,79,50,30.16,30.04,9,1,13,0.01
2013-1-3,53.1,32.5,19.0,31.9,24.1,17.1,93,74,32,30.32,30.14,11,2,11,0.01
2013-1-4,55.8,33.5,18.7,30.6,22.9,16.5,92,70,29,30.33,30.18,12,2,13,0.00
2013-1-5,51.1,38.3,28.9,34.2,29.4,24.0,92,71,50,30.17,30.02,9,2,13,0.00
2013-1-6,54.5,33.7,23.5,27.2,23.0,19.5,93,69,28,30.28,30.13,9,2,10,0.00
2013-1-7,58.3,37.3,20.1,31.0,25.8,17.4,92,66,33,30.19,29.96,11,2,12,0.00
2013-1-8,63.1,44.3,31.5,45.4,34.5,26.0,95,71,36,30.06,29.89,9,2,14,0.25
2013-1-9,57.0,51.2,45.5,47.9,43.8,38.4,96,78,53,30.19,30.03,9,3,11,0.01
2013-1-10,57.0,52.5,48.6,55.3,49.0,42.4,95,88,66,30.02,29.66,8,3,11,0.33
2013-1-11,72.5,57.1,44.4,49.0,46.4,43.1,96,70,41,29.72,29.53,14,5,16,0.01
2013-1-12,60.6,39.8,26.6,48.2,30.4,21.7,91,72,31,29.94,29.65,16,4,17,0.34
2013-1-13,35.2,25.0,17.6,22.1,18.0,13.6,89,75,53,30.25,29.90,0,0,0,0.01
2013-1-14,40.1,26.5,15.6,18.3,15.9,12.7,90,66,37,30.35,30.19,8,2,9,0.00
2013-1-15,37.9,27.1,17.8,21.4,16.1,11.8,89,66,34,30.20,30.05,8,3,11,0.01
2013-1-16,52.3,30.5,14.7,22.1,16.7,11.9,89,62,22,30.08,29.97,8,2,12,0.00
2013-1-17,57.7,37.2,25.0,34.2,26.4,19.4,89,68,34,30.33,30.06,11,3,14,0.00
2013-1-18,63.7,43.0,25.3,33.9,28.8,23.1,92,62,26,30.35,30.04,15,3,17,0.00
2013-1-19,71.8,49.3,35.8,37.8,34.1,30.8,86,60,26,30.07,29.93,12,3,12,0.00
2013-1-20,70.3,46.2,31.6,35.8,28.9,14.9,85,55,26,30.17,29.98,11,4,15,0.00
2013-1-21,46.4,32.5,24.1,17.1,14.8,9.9,70,50,25,30.28,30.15,11,4,12,0.00
2013-1-22,57.9,34.2,18.9,28.1,21.7,14.8,85,64,28,30.18,30.03,8,2,10,0.00
2013-1-23,67.5,43.0,24.4,42.3,32.4,21.2,88,69,37,30.11,29.98,10,2,11,0.00
2013-1-24,46.2,40.9,36.9,30.5,23.5,18.2,60,50,39,30.16,29.96,10,4,15,0.00
2013-1-25,53.4,39.5,31.5,30.6,25.6,22.0,73,58,35,30.11,29.98,8,3,11,0.00
2013-1-26,61.7,45.8,30.4,35.2,28.4,21.9,85,55,22,30.12,29.94,14,2,14,0.00
2013-1-27,61.9,54.3,47.5,56.8,48.8,35.1,91,82,62,29.96,29.72,12,5,17,0.00
2013-1-28,79.2,68.6,57.9,63.6,61.3,55.3,92,78,57,29.78,29.61,17,6,18,0.00
2013-1-29,71.2,58.7,43.0,63.7,54.5,40.5,96,86,72,29.60,29.29,15,6,21,1.07
2013-1-30,42.8,35.6,23.7,39.8,27.5,21.2,90,73,51,29.92,29.45,16,7,24,0.01
2013-1-31,50.5,31.8,21.4,30.3,21.8,9.3,93,69,42,30.32,29.87,12,4,20,0.01
2013-2-1,48.9,29.7,16.5,22.0,11.9,3.8,79,50,23,30.33,30.02,9,3,11,0.00
2013-2-2,62.6,41.4,24.8,32.5,27.2,20.0,84,60,29,30.13,30.03,7,2,10,0.00
2013-2-3,63.0,47.3,31.1,31.1,26.2,16.9,79,48,17,30.17,29.79,7,3,9,0.00
2013-2-4,72.0,55.5,41.2,39.9,33.7,28.4,72,46,21,29.82,29.68,9,3,13,0.00
2013-2-5,75.4,47.4,28.4,42.7,32.7,26.7,93,63,20,29.90,29.77,6,2,9,0.00
2013-2-6,71.6,50.8,32.5,48.3,38.8,29.9,91,66,39,29.92,29.75,10,3,12,0.00
2013-2-7,60.3,52.4,43.3,54.4,47.9,38.2,93,85,70,30.00,29.69,11,4,13,0.02
2013-2-8,58.3,42.5,34.2,37.7,33.0,30.0,89,71,41,30.18,30.00,7,3,12,0.00
2013-2-9,47.8,41.7,33.3,43.0,36.2,30.8,93,81,59,30.03,29.61,9,4,14,0.09
2013-2-10,65.3,52.6,34.3,49.8,34.7,21.4,96,58,21,29.92,29.48,20,7,23,0.12
2013-2-11,58.5,40.4,28.2,28.0,25.4,20.6,85,59,25,30.08,29.91,10,3,11,0.00
2013-2-12,45.9,38.6,30.9,39.0,31.4,25.5,95,76,52,29.99,29.81,12,3,13,0.30
2013-2-13,60.4,42.0,33.4,37.9,33.2,28.4,96,75,33,29.91,29.79,13,4,13,0.01
2013-2-14,63.7,45.7,28.6,36.0,30.7,24.7,87,59,30,30.06,29.82,11,3,14,0.00
2013-2-15,48.2,36.4,26.2,30.8,19.3,8.6,79,53,21,30.27,30.06,14,6,16,0.00
2013-2-16,47.5,35.1,22.6,26.7,17.1,8.1,79,51,22,30.24,29.94,11,4,13,0.00
2013-2-17,74.5,51.6,29.5,32.3,26.8,17.2,75,42,17,29.94,29.62,11,4,17,0.00
2013-2-18,64.6,54.5,37.8,50.8,37.6,24.3,71,54,34,30.01,29.48,23,8,24,0.00
2013-2-19,55.4,38.8,24.4,26.5,22.3,19.1,85,55,26,30.21,30.02,12,3,14,0.00
2013-2-20,38.7,35.8,31.8,33.5,27.7,17.0,95,74,43,30.14,29.88,7,3,8,0.35
2013-2-21,37.6,34.8,28.9,35.2,32.6,23.9,95,92,80,29.87,29.53,16,4,16,0.90
2013-2-22,42.1,30.2,20.8,22.5,19.9,16.8,85,67,42,30.00,29.81,13,2,13,0.00
2013-2-23,53.1,32.8,18.0,25.1,21.2,15.7,91,67,31,29.99,29.81,7,2,10,0.04
2013-2-24,64.9,43.2,24.4,37.8,30.6,22.0,92,66,34,29.83,29.61,11,3,15,0.00
2013-2-25,44.8,39.5,33.6,38.2,35.0,31.2,95,84,65,29.69,29.33,17,6,26,1.06
2013-2-26,41.4,37.1,33.4,33.2,32.3,30.1,96,83,71,29.77,29.35,24,7,24,0.17
2013-2-27,50.5,38.6,33.8,32.3,29.3,26.7,85,70,43,30.00,29.75,15,6,19,0.00
2013-2-28,46.6,37.5,29.1,30.6,28.1,25.4,87,70,51,30.08,29.99,15,6,17,0.00
2013-3-1,38.5,35.0,30.9,27.7,24.5,19.7,72,65,57,30.18,30.06,15,5,16,0.00
2013-3-2,52.0,34.9,21.9,23.3,20.2,16.3,82,58,24,30.24,30.05,11,3,13,0.00
2013-3-3,66.6,47.5,28.4,32.5,27.2,22.1,80,49,23,30.05,29.54,12,4,15,0.00
2013-3-4,79.7,59.3,45.1,43.9,38.6,32.2,68,49,24,29.81,29.43,16,6,22,0.00
2013-3-5,53.8,42.9,32.7,36.6,24.0,16.6,87,50,24,30.23,29.81,20,9,22,0.04
2013-3-6,57.2,39.5,22.8,27.3,21.9,17.1,83,53,22,30.30,30.07,8,3,10,0.00
2013-3-7,72.7,50.9,29.7,31.8,26.9,18.1,85,47,13,30.09,29.93,12,4,18,0.00
2013-3-8,60.6,54.6,45.9,42.9,36.8,31.5,64,51,42,30.03,29.83,10,4,14,0.00
2013-3-9,65.3,59.7,55.8,57.8,48.6,37.1,96,69,44,29.83,29.51,11,4,16,0.40
2013-3-10,55.2,43.2,32.9,54.1,38.5,24.9,96,83,72,29.88,29.48,14,7,27,0.07
2013-3-11,56.5,39.8,28.9,26.3,21.2,8.1,77,53,15,29.89,29.82,15,5,15,0.00
2013-3-12,64.4,47.0,30.7,41.1,28.8,20.7,92,55,21,30.19,29.88,13,4,15,0.07
2013-3-13,62.6,43.0,26.4,27.7,22.5,16.4,83,50,19,30.35,30.19,6,2,10,0.00
2013-3-14,84.0,57.5,35.4,42.4,33.9,25.4,71,46,18,30.19,29.92,11,3,17,0.00
2013-3-15,89.2,67.9,48.0,50.1,44.1,37.9,83,48,17,29.95,29.60,12,4,17,0.00
2013-3-16,77.2,61.0,48.7,50.4,45.3,39.0,82,58,37,29.72,29.58,16,5,17,0.00
2013-3-17,48.7,44.6,41.5,44.3,40.8,37.2,95,87,70,29.72,29.56,15,5,19,0.01
2013-3-18,65.8,48.7,37.9,42.0,35.0,21.7,95,67,20,29.91,29.55,11,5,14,0.00
2013-3-19,66.7,48.2,33.1,31.7,25.1,13.4,83,46,15,30.11,29.88,11,4,14,0.00
2013-3-20,56.5,43.1,30.2,35.2,24.2,13.5,94,54,18,30.26,29.94,11,4,17,0.00
2013-3-21,44.1,40.6,37.9,36.0,26.9,18.8,90,60,38,29.94,29.62,11,5,14,0.14
2013-3-22,49.5,42.5,37.6,39.0,36.8,34.7,92,81,67,29.78,29.65,8,3,10,0.01
2013-3-23,44.1,41.9,39.4,41.4,39.1,36.0,95,90,83,29.78,29.59,6,3,11,0.05
2013-3-24,43.0,35.1,26.1,37.5,27.8,20.0,95,76,46,30.03,29.61,21,9,25,0.11
2013-3-25,41.0,33.6,25.9,23.2,20.8,17.0,80,60,39,30.24,30.02,18,7,19,0.00
2013-3-26,58.1,36.6,20.1,25.7,20.8,15.6,90,59,19,30.32,30.14,12,3,14,0.00
2013-3-27,72.1,50.3,28.9,32.0,26.6,23.1,81,46,16,30.14,29.95,18,4,18,0.00
2013-3-28,79.0,60.3,43.5,50.9,42.1,31.4,67,52,36,30.05,29.91,11,3,15,0.00
2013-3-29,77.7,62.6,51.4,58.5,53.9,48.2,91,74,51,30.01,29.92,8,2,10,0.00
2013-3-30,81.1,63.6,54.1,61.5,57.3,53.3,97,82,51,29.94,29.67,10,3,13,1.58
2013-3-31,78.3,61.0,50.0,55.8,47.6,40.2,97,66,29,29.86,29.73,18,4,24,0.01
2013-4-1,64.0,50.5,41.2,44.1,39.7,30.7,94,69,45,30.03,29.83,12,5,20,0.00
2013-4-2,44.8,41.3,38.3,39.7,36.2,29.4,94,83,55,30.12,30.02,10,5,15,0.78
2013-4-3,49.6,43.5,41.0,39.8,33.8,26.8,93,70,43,30.11,30.02,8,3,10,0.21
2013-4-4,64.9,49.7,40.3,41.3,38.3,32.2,94,69,32,30.04,29.93,11,4,14,0.11
2013-4-5,76.3,56.4,36.1,46.4,40.8,34.9,96,62,27,30.06,29.80,8,3,11,0.00
2013-4-6,82.2,66.8,56.7,51.6,48.2,44.2,69,53,31,29.80,29.62,17,6,19,0.00
2013-4-7,75.6,64.1,50.7,60.3,55.5,47.7,93,74,58,29.74,29.57,15,4,17,0.00
2013-4-8,77.9,68.3,61.9,63.2,60.4,57.2,91,76,60,29.62,29.50,11,4,14,0.07
2013-4-9,86.4,73.8,54.5,64.7,61.8,47.4,77,67,47,29.65,29.50,20,5,20,0.01
2013-4-10,52.9,41.0,36.9,46.2,37.7,33.1,93,88,78,29.81,29.63,16,7,20,0.48
2013-4-11,59.4,44.3,35.1,34.6,30.7,27.1,86,62,31,29.81,29.63,14,6,14,0.00
2013-4-12,67.1,49.5,35.6,38.2,32.9,29.7,90,57,25,29.89,29.68,11,4,13,0.00
2013-4-13,78.8,59.2,43.2,49.5,44.7,37.4,85,62,32,29.91,29.58,9,3,13,0.02
2013-4-14,87.6,70.2,56.5,57.9,50.4,45.1,72,52,29,29.59,29.35,18,5,24,0.00
2013-4-15,75.2,62.6,54.0,56.6,44.9,35.4,73,53,35,29.73,29.53,12,6,19,0.00
2013-4-16,61.0,54.4,51.3,51.9,47.8,42.6,90,79,67,29.85,29.69,12,5,13,0.00
2013-4-17,85.6,69.3,52.7,70.5,61.2,48.6,94,77,54,29.78,29.42,15,4,21,0.18
2013-4-18,65.8,48.4,41.4,65.0,41.0,26.9,97,76,55,29.94,29.36,16,8,22,1.07
2013-4-19,67.8,48.6,34.2,38.7,29.2,19.5,78,52,19,30.00,29.88,14,6,14,0.00
2013-4-20,79.5,58.0,38.1,43.2,37.4,25.9,93,54,14,30.02,29.88,7,2,12,0.00
2013-4-21,78.6,62.3,51.3,46.1,42.8,37.6,77,52,24,30.08,29.93,13,3,17,0.00
2013-4-22,82.4,65.6,46.9,52.4,46.4,40.5,81,52,32,30.00,29.70,14,4,17,0.00
2013-4-23,66.0,45.4,37.4,55.7,42.2,34.3,93,89,56,30.07,29.66,13,6,17,0.24
2013-4-24,64.6,46.4,32.9,33.9,30.2,23.1,92,59,23,30.17,30.05,12,4,15,0.00
2013-4-25,78.1,56.3,33.3,43.4,33.4,22.4,93,51,13,30.22,30.02,6,2,8,0.00
2013-4-26,60.8,56.1,53.1,52.7,48.0,38.4,95,76,46,30.07,29.92,10,3,17,0.18
2013-4-27,57.0,54.6,52.5,53.4,51.8,50.9,97,90,82,29.94,29.81,10,3,11,0.13
2013-4-28,86.5,65.4,46.4,60.7,53.7,45.5,97,71,32,29.89,29.68,10,2,10,0.00
2013-4-29,95.4,74.8,56.5,65.8,57.1,50.7,90,59,25,29.71,29.55,21,4,21,0.00
2013-4-30,90.9,75.6,61.2,62.0,55.6,42.8,84,54,19,29.67,29.58,12,3,15,0.00
2013-5-1,91.4,76.0,60.6,66.0,59.7,49.2,82,59,34,29.91,29.66,9,3,16,0.00
2013-5-2,60.6,44.4,36.0,46.7,39.6,34.3,94,84,67,30.23,29.91,18,9,21,0.41
2013-5-3,63.5,49.0,36.1,37.9,31.8,20.5,94,59,21,30.19,29.82,19,6,20,0.01
2013-5-4,54.7,45.6,40.3,46.1,41.0,35.6,93,84,66,29.90,29.75,11,5,14,0.38
2013-5-5,62.2,52.2,43.3,50.2,46.1,38.2,92,80,64,29.99,29.89,8,3,10,0.00
2013-5-6,74.3,56.7,44.6,54.9,50.3,43.5,97,81,49,29.98,29.86,7,3,9,0.00
2013-5-7,87.1,65.8,46.0,59.7,51.8,43.3,97,67,23,29.94,29.80,5,2,6,0.00
2013-5-8,88.3,71.0,55.6,63.8,57.2,51.8,92,64,40,29.88,29.70,11,3,12,0.01
2013-5-9,81.0,67.2,59.9,66.2,62.5,58.6,97,86,55,29.81,29.68,11,3,17,0.59
2013-5-10,77.5,65.8,53.8,64.6,58.3,52.1,97,79,51,29.93,29.76,11,3,15,0.01
2013-5-11,80.4,64.5,49.6,58.7,48.7,35.1,98,63,22,30.08,29.92,15,4,15,0.00
2013-5-12,77.9,59.7,41.0,48.4,41.3,28.4,92,58,19,30.14,29.98,5,2,10,0.00
2013-5-13,96.1,72.0,50.4,59.8,51.6,46.1,87,54,21,29.99,29.84,8,2,11,0.00
2013-5-14,95.2,77.9,58.3,58.7,55.3,47.3,83,51,20,29.88,29.75,13,4,15,0.00
2013-5-15,78.1,70.2,64.4,69.4,62.6,54.2,97,78,55,29.81,29.64,8,3,12,0.31
2013-5-16,82.0,69.7,63.0,67.3,64.5,61.5,97,85,57,29.73,29.65,5,1,10,0.04
2013-5-17,89.8,74.0,61.2,69.9,65.7,60.0,98,78,48,29.77,29.69,7,1,7,0.00
2013-5-18,94.3,79.8,69.8,77.5,72.7,68.0,96,80,55,29.72,29.57,10,3,13,0.00
2013-5-19,87.4,77.5,66.2,72.2,68.4,61.3,94,75,55,29.71,29.45,14,4,23,0.08
2013-5-20,88.0,75.4,68.9,75.0,69.5,61.4,95,82,61,29.63,29.46,11,3,12,0.17
2013-5-21,68.5,62.8,57.0,67.1,61.3,55.9,98,95,87,29.75,29.50,8,2,17,0.33
2013-5-22,87.3,67.8,53.2,62.1,57.1,52.9,99,73,36,29.77,29.65,8,2,16,0.00
2013-5-23,72.0,63.8,57.2,63.1,59.4,55.7,99,86,64,29.99,29.76,8,2,10,0.00
2013-5-24,88.3,72.8,59.5,69.2,62.7,56.5,95,72,52,30.07,29.95,7,2,8,0.08
2013-5-25,91.0,76.4,65.8,71.2,63.9,57.3,87,67,47,30.03,29.85,9,3,12,0.01
2013-5-26,89.4,78.1,68.0,72.9,68.6,63.9,92,74,54,29.91,29.77,15,3,15,0.00
2013-5-27,88.9,79.2,69.6,72.1,68.5,63.4,92,71,54,29.79,29.58,12,5,17,0.00
2013-5-28,85.5,78.4,72.9,70.8,68.6,66.9,86,72,59,29.65,29.57,17,4,17,0.02
2013-5-29,83.8,75.9,66.6,70.7,67.7,62.8,97,76,62,29.67,29.52,16,4,16,0.44
2013-5-30,79.0,70.9,64.0,73.6,68.4,63.7,99,92,77,29.62,29.49,11,3,20,1.75
2013-5-31,92.5,79.6,69.8,76.7,73.1,68.5,99,82,58,29.60,29.44,17,4,17,0.04
2013-6-1,85.5,73.0,60.8,68.8,62.9,56.9,93,73,41,29.85,29.49,14,3,14,0.05
2013-6-2,76.6,64.8,56.7,58.8,56.6,53.8,97,76,54,29.93,29.84,8,3,11,0.04
2013-6-3,88.5,69.7,51.6,65.7,59.6,50.8,98,74,44,29.89,29.69,6,2,9,0.02
2013-6-4,88.5,74.6,65.5,71.2,66.7,62.0,97,78,54,29.81,29.66,5,2,12,0.22
2013-6-5,87.1,75.0,66.0,71.3,67.6,64.8,98,79,55,29.82,29.70,8,3,14,0.60
2013-6-6,81.7,72.2,59.5,66.5,61.5,54.9,92,72,41,29.81,29.75,8,3,12,0.07
2013-6-7,87.3,70.4,57.2,64.3,58.0,54.0,98,70,34,29.86,29.75,11,2,11,0.00
2013-6-8,89.4,73.5,57.2,66.3,61.3,56.1,97,69,38,29.78,29.63,8,2,11,0.00
2013-6-9,96.1,78.8,65.1,67.7,63.2,56.1,90,63,29,29.74,29.66,9,2,11,0.00
2013-6-10,100.4,84.3,68.5,72.3,67.8,60.9,88,60,36,29.76,29.67,11,3,12,0.05
2013-6-11,99.3,85.5,70.9,75.1,70.6,67.1,92,65,37,29.80,29.70,10,3,17,0.00
2013-6-12,99.3,86.6,75.6,74.4,71.9,68.7,88,64,40,29.79,29.70,12,4,17,0.00
2013-6-13,100.0,83.5,72.0,74.2,71.2,66.9,97,69,42,29.87,29.75,10,2,10,0.00
2013-6-14,101.3,85.0,69.8,79.4,73.7,68.3,97,72,44,29.84,29.72,7,2,9,0.00
2013-6-15,91.6,79.9,72.7,78.0,73.7,70.1,93,82,57,29.84,29.77,12,2,12,0.05
2013-6-16,97.3,79.6,70.5,79.9,72.0,66.7,97,79,53,29.83,29.72,8,2,11,0.00
2013-6-17,82.9,73.6,67.1,71.7,68.6,66.0,99,85,61,29.84,29.69,16,3,16,0.65
2013-6-18,97.0,79.4,65.8,73.8,67.9,63.4,99,73,34,29.88,29.77,4,1,7,0.00
2013-6-19,91.4,78.7,64.6,74.9,68.7,63.7,98,74,45,29.88,29.77,7,1,11,0.00
2013-6-20,97.3,84.0,71.2,78.8,73.1,68.1,91,71,47,29.86,29.75,10,3,15,0.00
2013-6-21,97.9,85.8,77.2,77.0,72.5,66.6,88,67,38,29.87,29.78,11,4,13,0.00
2013-6-22,97.9,85.1,74.1,76.5,71.5,69.1,90,66,41,29.85,29.72,9,3,15,0.00
2013-6-23,98.1,86.1,76.6,76.2,72.3,69.1,86,66,43,29.78,29.69,13,4,14,0.00
2013-6-24,97.2,84.6,75.2,74.4,71.7,69.1,87,67,43,29.85,29.73,11,3,14,0.00
2013-6-25,94.6,84.2,75.9,76.7,73.1,71.0,87,70,51,29.77,29.62,11,4,17,0.00
2013-6-26,102.2,87.9,77.0,79.6,74.8,71.3,86,67,46,29.75,29.64,8,3,12,0.00
2013-6-27,104.4,89.2,74.8,80.8,76.7,66.4,98,70,44,29.78,29.67,7,2,9,0.00
2013-6-28,101.5,86.4,73.8,73.3,68.2,58.1,86,57,30,29.81,29.67,9,3,14,0.00
2013-6-29,95.0,81.3,65.7,64.5,58.7,52.2,87,51,24,29.76,29.64,12,4,16,0.00
2013-6-30,88.0,76.4,62.4,61.1,58.2,55.8,86,55,35,29.82,29.71,14,4,17,0.00
2013-7-1,90.0,75.4,60.6,63.1,56.4,44.6,92,57,22,29.91,29.81,11,4,14,0.00
2013-7-2,92.1,74.3,58.6,62.8,54.4,46.6,87,56,21,29.95,29.86,8,2,14,0.00
2013-7-3,96.3,75.1,54.9,64.5,56.8,48.0,96,59,22,29.95,29.82,4,1,8,0.06
2013-7-4,98.1,76.8,58.8,66.8,61.5,57.1,96,64,31,29.88,29.77,11,2,11,0.04
2013-7-5,100.4,80.3,63.7,68.9,64.4,59.4,95,63,27,29.85,29.73,9,2,14,0.00
2013-7-6,97.0,78.8,69.6,70.6,66.1,63.2,82,67,38,29.83,29.75,6,1,9,0.00
2013-7-7,100.9,84.7,70.5,71.5,67.8,64.4,86,61,31,29.86,29.77,8,2,11,0.00
2013-7-8,101.1,84.0,70.9,76.7,70.7,67.4,89,67,40,29.91,29.83,8,2,11,0.02
2013-7-9,104.2,88.9,74.5,74.4,72.4,70.4,91,62,36,29.89,29.76,13,3,13,0.00
2013-7-10,108.9,89.4,74.7,74.8,70.9,64.9,88,59,25,29.82,29.72,8,2,9,0.00
2013-7-11,104.2,88.1,75.6,76.1,72.7,67.8,90,64,33,29.83,29.72,9,2,11,0.00
2013-7-12,103.8,86.9,73.4,74.8,71.1,67.5,89,62,34,29.85,29.76,7,2,10,0.00
2013-7-13,105.4,86.2,71.2,71.4,67.0,61.8,91,57,27,29.87,29.75,8,2,8,0.00
2013-7-14,97.3,81.7,70.3,70.7,64.7,59.7,79,58,30,29.87,29.75,8,2,9,0.01
2013-7-15,88.5,75.1,66.4,71.7,67.9,61.1,98,80,51,30.02,29.87,8,2,16,0.69
2013-7-16,96.6,79.2,70.0,77.8,73.0,69.2,99,84,43,30.08,29.99,4,0,9,0.18
2013-7-17,101.5,84.5,71.4,78.7,71.9,67.1,99,71,34,30.13,30.00,6,1,9,0.01
2013-7-18,103.8,85.2,70.5,78.7,71.2,65.7,97,68,32,30.03,29.85,6,1,11,0.00
2013-7-19,104.7,86.4,72.7,76.2,71.4,66.6,97,66,31,29.87,29.72,8,2,11,0.00
2013-7-20,102.9,86.0,71.6,76.3,71.8,65.9,94,66,31,29.79,29.65,12,2,14,0.01
2013-7-21,95.2,78.0,71.4,79.6,74.6,70.0,99,90,59,29.79,29.65,6,1,10,2.37
2013-7-22,97.9,85.2,74.7,78.7,75.4,72.3,99,75,47,29.75,29.61,8,2,11,0.01
2013-7-23,105.3,88.4,75.9,84.8,76.4,68.3,95,70,41,29.74,29.60,14,2,24,0.00
2013-7-24,96.8,80.1,69.1,74.3,71.6,68.5,99,79,45,29.85,29.72,8,2,11,0.74
2013-7-25,91.6,78.8,68.7,76.3,72.5,68.5,99,83,51,29.92,29.83,3,0,6,0.05
2013-7-26,87.6,76.5,68.7,78.1,74.1,68.5,99,93,66,29.87,29.80,6,1,13,0.39
2013-7-27,89.2,75.7,65.7,70.3,65.8,62.4,99,75,43,29.91,29.80,7,2,13,0.04
2013-7-28,93.6,76.3,66.7,72.8,66.9,63.6,94,74,50,29.88,29.80,8,2,11,0.00
2013-7-29,94.1,80.0,68.7,78.6,73.2,66.7,96,81,58,29.85,29.74,9,2,11,0.02
2013-7-30,99.3,82.1,71.6,78.9,75.5,71.3,99,83,50,29.87,29.78,11,1,14,0.84
2013-7-31,96.1,83.9,75.6,79.5,76.0,71.4,99,80,46,29.91,29.83,8,2,10,0.00
2013-8-1,100.2,83.4,69.3,75.2,71.4,66.2,99,72,34,29.93,29.78,4,1,5,0.00
2013-8-2,100.8,83.0,73.2,82.3,77.5,72.3,99,85,54,29.81,29.65,7,1,11,0.04
2013-8-3,85.1,79.4,75.4,78.4,76.0,73.5,99,89,70,29.89,29.70,5,1,8,0.18
2013-8-4,92.1,80.7,75.0,81.0,77.3,73.9,99,90,69,29.93,29.78,5,1,8,0.01
2013-8-5,102.4,86.8,75.0,81.2,77.4,74.0,99,77,47,29.81,29.63,6,2,8,0.00
2013-8-6,104.2,88.5,76.1,81.0,76.7,72.9,92,70,45,29.71,29.60,4,1,13,0.00
2013-8-7,95.5,85.0,78.8,83.4,77.7,74.8,90,79,59,29.75,29.64,7,2,11,0.07
2013-8-8,92.8,81.5,73.0,77.5,75.5,71.9,99,83,61,29.78,29.66,6,2,11,0.09
2013-8-9,90.9,77.9,70.7,76.5,73.2,69.6,99,87,56,29.88,29.74,11,2,11,0.89
2013-8-10,91.8,77.8,68.9,74.6,70.6,66.9,99,80,54,29.96,29.87,7,2,9,0.00
2013-8-11,97.7,80.2,71.1,78.0,73.6,70.4,99,82,45,29.93,29.83,5,1,8,0.00
2013-8-12,94.3,79.2,73.8,78.9,75.2,71.3,99,89,58,29.92,29.78,5,1,14,0.22
2013-8-13,90.5,76.7,71.4,77.8,73.8,68.2,99,91,60,29.91,29.81,8,1,12,0.77
2013-8-14,91.0,75.6,65.8,71.7,66.3,62.9,98,75,43,29.97,29.88,6,2,10,0.00
2013-8-15,90.5,73.1,60.6,67.8,64.2,60.4,99,77,38,29.95,29.83,5,1,8,0.00
2013-8-16,90.9,75.1,64.4,73.1,66.7,64.1,99,78,44,29.95,29.83,5,1,6,0.15
2013-8-17,89.2,73.1,61.3,67.2,62.8,59.1,99,74,38,29.99,29.89,7,1,11,0.00
2013-8-18,100.6,75.6,61.0,73.2,65.9,60.7,99,77,37,29.98,29.87,5,1,8,0.00
2013-8-19,95.0,77.2,63.9,73.1,68.7,63.6,99,79,44,29.95,29.83,7,1,8,0.00
2013-8-20,97.2,78.6,65.1,73.8,68.9,64.9,99,76,39,29.92,29.83,5,1,8,0.00
2013-8-21,100.2,80.1,65.3,74.7,70.0,65.0,99,76,37,29.93,29.85,4,1,11,0.00
2013-8-22,101.7,83.1,69.6,77.7,72.6,68.8,97,74,40,29.94,29.83,5,1,6,0.00
2013-8-23,102.9,82.7,70.3,78.9,74.1,69.8,99,79,40,29.90,29.81,5,1,8,0.01
2013-8-24,101.8,83.4,70.5,79.6,74.1,70.3,99,77,42,29.96,29.85,4,1,8,0.00
2013-8-25,102.0,84.3,70.9,78.2,74.1,70.6,99,75,39,30.03,29.93,5,1,8,0.00
2013-8-26,99.5,83.8,72.0,76.9,73.4,71.5,99,74,41,30.04,29.91,7,1,9,0.00
2013-8-27,99.3,82.1,68.4,74.6,71.0,67.3,99,73,37,29.95,29.84,6,1,9,0.00
2013-8-28,101.3,83.7,70.9,76.6,73.1,70.6,99,74,42,29.91,29.83,8,1,11,0.00
2013-8-29,105.3,86.1,73.8,78.3,73.5,68.6,97,70,31,29.90,29.80,7,1,7,0.00
2013-8-30,107.4,87.3,73.8,76.2,72.1,66.7,95,66,29,29.83,29.69,8,1,10,0.00
2013-8-31,109.0,88.5,74.5,76.0,72.2,65.2,92,64,25,29.73,29.61,5,1,8,0.00
2013-9-1,97.2,84.3,74.7,77.8,73.9,70.9,88,72,51,29.75,29.62,8,2,10,0.00
2013-9-2,94.3,80.6,68.9,75.0,65.7,61.1,95,64,35,29.86,29.74,9,3,13,0.00
2013-9-3,98.4,76.9,61.0,69.9,62.8,55.2,99,68,25,29.91,29.81,6,1,8,0.00
2013-9-4,101.7,79.0,61.2,75.5,65.5,60.6,99,69,30,29.97,29.87,5,1,8,0.00
2013-9-5,102.7,80.7,63.7,68.8,65.4,61.5,98,65,27,30.01,29.90,5,1,6,0.00
2013-9-6,102.2,81.1,65.1,71.0,66.1,62.6,94,65,29,29.96,29.81,5,1,8,0.00
2013-9-7,106.9,84.0,68.2,70.8,66.6,63.3,89,61,25,29.86,29.74,8,1,8,0.00
2013-9-8,104.4,85.5,70.5,72.0,67.2,62.7,92,60,26,29.80,29.70,9,2,9,0.00
2013-9-9,102.4,83.8,68.0,71.7,66.8,62.7,96,62,28,29.83,29.74,8,2,11,0.00
2013-9-10,100.8,82.6,70.3,69.8,65.7,60.7,83,60,27,29.94,29.80,13,2,13,0.00
2013-9-11,103.1,82.4,66.7,72.9,65.3,57.6,96,63,23,29.99,29.85,7,1,9,0.00
2013-9-12,100.4,83.1,68.9,73.2,69.5,66.7,98,67,38,29.93,29.83,9,2,14,0.00
2013-9-13,93.0,78.5,66.7,70.6,58.6,50.1,85,55,25,29.92,29.81,11,3,13,0.00
2013-9-14,96.1,74.6,58.6,62.2,57.9,53.4,89,60,28,29.91,29.77,5,1,8,0.00
2013-9-15,95.9,79.0,66.6,69.6,61.3,54.7,75,57,36,29.87,29.80,8,2,11,0.00
2013-9-16,91.0,76.1,69.3,75.3,70.1,67.6,98,83,50,30.03,29.85,8,2,12,0.35
2013-9-17,90.5,74.6,68.0,72.9,70.1,67.7,99,87,51,29.97,29.80,4,1,5,0.04
2013-9-18,99.0,81.5,70.5,74.6,70.8,68.3,96,73,41,29.84,29.71,12,2,14,0.00
2013-9-19,95.4,77.9,70.7,74.2,71.6,67.8,99,83,46,29.80,29.67,11,2,12,0.24
2013-9-20,74.3,68.6,57.2,71.0,64.1,56.7,99,87,57,29.85,29.75,11,3,11,0.25
2013-9-21,88.3,66.6,51.4,63.2,55.1,51.2,99,73,30,29.88,29.75,7,2,10,0.01
2013-9-22,89.4,66.6,50.0,65.3,53.2,48.4,99,71,25,29.83,29.67,5,1,8,0.00
2013-9-23,88.7,67.8,51.1,60.7,55.8,50.8,99,71,30,29.76,29.61,10,2,10,0.00
2013-9-24,86.5,70.8,60.4,60.8,58.8,56.5,95,69,39,29.74,29.68,11,3,14,0.00
2013-9-25,94.8,70.4,55.8,64.1,59.8,55.5,99,75,30,29.76,29.63,7,1,8,0.00
2013-9-26,97.2,75.9,58.3,66.7,62.0,58.0,99,68,33,29.75,29.64,11,2,12,0.08
2013-9-27,95.0,78.3,61.9,66.9,62.6,59.7,96,63,32,29.81,29.67,13,2,13,0.05
2013-9-28,78.4,68.4,55.8,69.9,63.5,55.5,99,85,68,29.93,29.68,8,2,14,1.31
2013-9-29,81.5,64.3,54.1,63.2,55.7,52.8,99,79,38,29.94,29.77,7,2,11,0.01
2013-9-30,90.5,67.6,50.7,68.1,58.6,50.5,99,78,35,29.78,29.66,4,1,8,0.00
2013-10-1,92.7,76.1,64.6,74.6,68.5,63.0,99,81,39,29.80,29.68,6,1,16,0.00
2013-10-2,92.7,76.9,66.7,74.8,70.1,66.5,99,82,50,29.84,29.70,11,2,12,0.00
2013-10-3,92.5,78.2,70.0,75.0,71.5,68.9,99,82,55,29.75,29.61,13,3,13,0.02
2013-10-4,92.7,79.2,72.3,74.1,71.1,68.0,95,78,49,29.73,29.62,12,4,16,0.00
2013-10-5,76.5,59.6,47.1,69.7,49.7,41.4,99,73,34,29.95,29.71,10,3,14,0.59
2013-10-6,73.2,56.3,45.0,49.1,44.3,40.3,99,69,36,29.90,29.83,13,3,14,0.02
2013-10-7,86.9,59.0,42.8,51.9,44.9,38.0,99,69,19,30.02,29.87,6,1,7,0.00
2013-10-8,83.1,60.6,45.3,56.8,49.4,45.1,99,73,28,29.99,29.85,6,1,10,0.00
2013-10-9,87.1,63.8,46.0,60.1,53.7,45.2,99,74,37,29.95,29.84,6,1,8,0.00
2013-10-10,87.8,66.8,52.0,63.8,57.2,51.2,99,75,40,29.92,29.71,8,2,10,0.00
2013-10-11,87.1,71.6,60.4,70.7,64.6,57.0,95,80,57,29.73,29.62,12,3,14,0.00
2013-10-12,81.0,67.5,57.7,68.9,58.0,52.3,99,75,41,29.99,29.69,11,3,11,0.32
2013-10-13,83.8,68.7,60.8,63.7,55.9,49.3,77,64,49,30.14,29.99,11,2,11,0.00
2013-10-14,66.0,63.5,59.0,65.2,60.8,55.3,99,91,75,30.04,29.75,6,1,9,0.83
2013-10-15,67.1,59.3,51.6,66.8,54.3,47.5,99,85,60,29.94,29.73,14,3,14,0.01
2013-10-16,65.8,53.3,42.3,48.5,44.6,41.2,97,74,46,30.02,29.88,9,3,11,0.01
2013-10-17,73.8,53.4,38.7,50.7,45.1,38.4,99,79,37,29.93,29.80,8,1,11,0.01
2013-10-18,61.7,48.4,41.4,49.2,44.9,40.6,99,88,59,30.00,29.85,10,4,11,0.25
2013-10-19,69.4,47.9,31.5,45.8,39.2,31.2,99,77,30,30.01,29.85,9,2,9,0.00
2013-10-20,77.0,55.8,41.5,48.3,43.3,37.7,97,69,26,29.85,29.69,10,2,17,0.00
2013-10-21,64.6,52.1,39.0,49.0,43.6,37.7,96,75,43,29.98,29.79,8,2,14,0.00
2013-10-22,78.1,54.3,37.8,49.1,43.6,37.0,99,73,30,29.95,29.81,9,2,15,0.00
2013-10-23,74.3,53.2,39.2,48.0,42.9,38.7,99,73,31,30.04,29.85,4,1,7,0.00
2013-10-24,63.5,49.5,38.7,45.3,38.7,33.0,99,70,36,30.26,29.93,14,3,17,0.02
2013-10-25,68.7,48.2,32.4,39.8,35.2,31.1,97,66,25,30.33,30.06,8,2,9,0.00
2013-10-26,71.6,54.8,45.0,56.7,48.6,39.6,99,81,53,30.06,29.93,6,2,8,0.00
2013-10-27,76.6,52.3,36.5,51.7,39.6,28.8,99,71,18,29.98,29.82,4,1,8,0.00
2013-10-28,78.1,60.6,42.4,59.4,54.9,40.8,99,83,48,29.99,29.85,8,1,8,0.05
2013-10-29,74.7,68.0,60.6,69.2,65.7,58.8,99,92,82,29.91,29.77,9,3,11,0.04
2013-10-30,70.3,67.7,64.9,68.9,66.6,62.9,99,96,91,29.84,29.62,10,3,14,0.74
2013-10-31,75.2,62.1,48.9,68.5,57.7,47.6,99,87,55,29.63,29.39,16,3,24,0.24
2013-11-1,75.9,55.8,42.1,50.8,44.0,38.8,99,71,29,29.89,29.62,9,2,14,0.01
2013-11-2,66.6,50.0,37.4,43.1,37.6,31.4,95,67,27,30.11,29.89,12,3,16,0.00
2013-11-3,64.6,50.5,34.7,45.3,40.7,34.2,99,72,45,30.05,29.82,10,3,16,0.00
2013-11-4,69.4,58.6,52.2,55.4,50.9,43.7,91,76,57,29.95,29.80,12,4,17,0.00
2013-11-5,63.7,60.0,56.1,63.4,59.5,55.1,99,98,91,29.94,29.75,8,3,11,0.60
2013-11-6,63.5,45.4,33.3,63.2,40.8,33.0,99,85,54,30.22,29.77,13,5,19,0.52
2013-11-7,73.4,47.1,29.5,46.6,37.5,29.2,99,76,26,30.30,30.17,6,1,8,0.00
2013-11-8,72.7,53.7,38.3,48.4,39.9,32.4,99,67,23,30.17,29.87,14,3,17,0.00
2013-11-9,72.7,57.2,45.0,49.2,45.1,42.2,93,67,34,30.11,29.91,11,2,11,0.00
2013-11-10,78.3,56.9,45.5,51.7,47.4,42.5,98,75,28,30.21,30.09,4,1,6,0.00
2013-11-11,74.8,57.8,44.6,57.8,50.4,38.5,95,78,49,30.31,30.01,15,4,19,0.00
2013-11-12,45.7,35.7,25.0,37.5,21.7,16.0,84,58,31,30.64,30.32,16,6,18,0.00
2013-11-13,57.6,36.9,20.1,27.3,22.8,18.5,95,62,22,30.55,30.16,9,2,12,0.00
2013-11-14,61.2,45.1,29.7,35.1,27.8,23.8,81,54,29,30.15,29.86,11,3,14,0.00
2013-11-15,68.7,53.7,42.6,52.8,46.1,35.1,98,77,51,29.87,29.65,11,3,15,0.15
2013-11-16,79.9,65.9,55.2,66.2,60.9,52.6,97,85,54,29.65,29.40,13,6,20,0.12
2013-11-17,79.0,66.8,43.9,66.9,42.4,19.2,86,48,12,29.96,29.36,17,6,21,0.00
2013-11-18,71.1,51.0,35.4,40.3,31.2,12.0,90,54,11,30.13,29.94,8,2,11,0.00
2013-11-19,64.4,53.5,43.0,37.0,30.9,21.8,78,44,21,30.07,29.85,9,3,11,0.00
2013-11-20,60.4,55.2,45.7,48.2,37.2,27.0,71,51,37,29.87,29.71,11,4,17,0.02
2013-11-21,59.7,50.6,35.2,55.5,48.0,34.0,99,92,63,30.22,29.79,12,4,18,0.33
2013-11-22,36.7,33.4,31.5,33.6,30.4,28.5,98,88,78,30.41,30.22,13,5,19,0.06
2013-11-23,42.3,34.7,27.0,29.4,22.5,13.1,85,62,37,30.54,30.40,11,4,15,0.00
2013-11-24,32.7,28.1,22.8,21.5,16.5,13.5,72,61,51,30.55,30.19,10,3,12,0.00
2013-11-25,38.7,34.6,30.6,32.8,27.2,18.4,89,75,55,30.19,30.05,5,2,10,0.00
2013-11-26,51.8,38.3,30.0,33.1,27.4,15.0,90,67,41,30.25,30.02,19,6,20,0.00
2013-11-27,46.8,29.8,19.8,17.4,14.2,8.4,78,55,22,30.33,30.15,11,3,16,0.00
2013-11-28,62.2,38.9,25.0,33.4,25.0,17.1,90,62,27,30.29,30.12,8,2,9,0.00
2013-11-29,60.8,41.0,24.6,29.2,17.3,-1.6,90,48,10,30.34,30.14,8,2,14,0.00
2013-11-30,66.6,47.9,36.9,37.9,30.1,21.7,77,52,27,30.14,29.94,11,3,12,0.00
2013-12-1,56.3,47.9,39.7,46.9,40.7,34.1,83,76,68,29.97,29.74,4,1,5,0.00
2013-12-2,66.7,50.4,44.2,48.0,41.1,37.0,86,73,35,29.75,29.51,7,1,9,0.00
2013-12-3,65.8,51.4,46.2,49.5,43.6,38.6,86,76,43,29.51,29.36,4,2,8,0.01
2013-12-4,50.2,42.6,30.4,45.0,31.9,12.6,85,67,47,29.90,29.34,14,5,14,0.00
2013-12-5,30.6,25.8,22.8,12.8,4.9,-1.4,56,41,29,30.16,29.88,13,6,21,0.00
2013-12-6,26.4,20.8,15.4,9.8,0.5,-14.4,64,43,23,30.44,30.12,13,6,15,0.00
2013-12-7,27.5,18.4,9.0,-0.2,-9.2,-17.9,43,29,13,30.50,30.15,11,4,12,0.00
2013-12-8,31.3,27.4,22.1,20.7,14.1,0.4,66,57,36,30.14,29.85,8,3,11,0.00
2013-12-9,28.0,23.6,18.5,15.0,5.8,-2.2,63,47,27,30.26,30.04,11,4,14,0.00
2013-12-10,42.6,24.4,9.3,10.5,0.1,-13.7,59,40,10,30.30,30.09,7,2,10,0.05
2013-12-11,43.5,28.1,17.4,14.5,5.4,-8.7,63,42,11,30.46,30.12,9,3,14,0.00
2013-12-12,49.3,29.1,13.6,16.2,5.4,-6.1,58,41,10,30.46,30.08,11,2,11,0.00
2013-12-13,42.4,36.8,29.7,29.9,23.6,14.6,71,59,45,30.08,29.67,11,3,15,0.24
2013-12-14,39.6,33.5,22.6,32.0,19.6,11.1,74,57,32,30.11,29.69,15,5,18,0.01
2013-12-15,63.0,37.3,19.6,19.2,10.7,0.3,65,40,10,30.11,29.93,5,2,11,0.00
2013-12-16,73.9,45.7,29.7,21.9,15.0,1.0,60,36,10,29.99,29.89,5,2,8,0.00
2013-12-17,65.3,41.6,28.8,21.0,14.4,0.4,60,39,10,30.16,29.97,9,2,11,0.00
2013-12-18,70.7,50.6,28.4,21.8,12.3,2.5,62,28,10,30.11,29.75,12,4,15,0.00
2013-12-19,63.0,57.7,52.2,45.0,36.6,22.3,62,46,30,29.75,29.51,11,5,16,0.00
2013-12-20,62.6,38.9,29.5,48.2,21.0,6.0,67,49,33,29.82,29.50,15,4,18,0.01
2013-12-21,33.4,32.3,29.7,23.2,21.3,17.5,66,63,60,29.69,29.35,0,0,0,0.00
2013-12-22,33.1,30.0,27.9,22.3,17.1,13.2,65,58,53,30.25,29.61,0,0,0,0.00
2013-12-23,30.4,24.7,16.7,15.4,9.7,3.0,58,52,40,30.46,30.23,0,0,0,0.00
2013-12-24,44.1,26.9,14.9,20.1,11.2,1.3,61,52,32,30.45,30.04,11,1,11,0.15
2013-12-25,44.4,33.1,26.1,25.8,18.5,14.5,65,56,34,30.25,30.12,8,2,10,0.00
2013-12-26,52.9,33.2,22.1,26.9,16.7,10.8,63,52,25,30.25,30.13,4,1,7,0.01
2013-12-27,65.8,41.1,27.3,24.7,13.0,-1.9,63,39,10,30.26,30.13,8,2,8,0.00
2013-12-28,64.8,43.7,28.8,23.5,14.8,3.2,59,37,10,30.13,29.77,7,2,11,0.00
2013-12-29,44.6,31.1,21.0,25.4,3.5,-22.0,52,32,13,30.16,29.78,15,6,23,0.00
2013-12-30,44.6,25.3,13.1,3.1,-11.1,-20.8,42,21,10,30.22,30.09,7,2,8,0.00
2013-12-31,60.8,37.6,19.4,10.4,0.7,-11.2,55,27,10,30.22,30.00,10,3,11,0.00
2014-1-1,55.4,38.5,17.8,11.4,3.8,-5.5,46,26,10,30.13,29.74,21,6,22,0.00
2014-1-2,34.5,21.0,11.5,-1.0,-10.6,-24.9,43,27,10,30.33,30.13,12,4,17,0.00